Time;durP1;ratioP1;P1;durP2;ratioP2;P2;SDS_P1;SDS_P2;PMS_P1;PMS_P2;Temp;Humidity;BMP_temperature;BMP_pressure;BME280_temperature;BME280_humidity;BME280_pressure;Samples;Min_cycle;Max_cycle;Signal;HPM_P1;HPM_P2
2022/11/03 00:01:53;;;;;;;;;;;;;;;14.06;63.29;101349.72;5029211;28;19921;-85
2022/11/03 00:04:19;;;;;;;;;;;;;;;14.10;63.50;101351.09;5030332;28;20361;-86
2022/11/03 00:06:46;;;;;;;;;;;;;;;14.15;62.98;101348.72;5011376;28;20019;-86
2022/11/03 00:09:13;;;;;;;;;;;;;;;14.14;63.07;101347.88;5053451;28;19960;-84
2022/11/03 00:11:39;;;;;;;;;;;;;;;14.02;63.54;101348.34;5059009;28;19923;-82
2022/11/03 00:14:04;;;;;;;;;;;;;;;13.93;64.18;101344.81;5034495;28;20015;-84
2022/11/03 00:16:30;;;;;;;;;;;;;;;13.82;64.52;101354.06;5032500;28;20422;-85
2022/11/03 00:18:56;;;;;;;;;;;;;;;13.92;64.08;101345.81;5049300;28;19935;-85
2022/11/03 00:21:23;;;;;;;;;;;;;;;13.68;65.03;101360.13;5049155;28;19923;-85
2022/11/03 00:23:48;;;;;;;;;;;;;;;13.78;64.79;101355.41;5030251;28;19920;-87
2022/11/03 00:26:13;;;;;;;;;;;;;;;13.81;64.93;101367.75;5023655;28;19921;-85
2022/11/03 00:28:41;;;;;;;;;;;;;;;13.81;64.55;101362.34;5047951;28;19917;-86
2022/11/03 00:31:08;;;;;;;;;;;;;;;13.75;64.91;101366.56;5021692;28;19985;-85
2022/11/03 00:33:37;;;;;;;;;;;;;;;13.84;64.70;101370.13;5027803;28;20388;-88
2022/11/03 00:36:04;;;;;;;;;;;;;;;13.83;64.79;101371.13;5023493;28;20245;-86
2022/11/03 00:38:30;;;;;;;;;;;;;;;13.84;64.76;101367.44;5024523;28;19924;-84
2022/11/03 00:40:58;;;;;;;;;;;;;;;13.89;64.19;101360.50;5023214;28;20395;-87
2022/11/03 00:43:24;;;;;;;;;;;;;;;13.93;64.05;101350.22;5026634;28;19920;-86
2022/11/03 00:45:51;;;;;;;;;;;;;;;14.02;63.27;101360.00;5046216;28;19921;-86
2022/11/03 00:48:29;;;;;;;;;;;;;;;14.11;62.60;101363.56;5046016;28;20028;-86
2022/11/03 00:51:24;;;;;;;;;;;;;;;14.22;62.07;101365.13;5047632;28;19925;-84
2022/11/03 00:53:50;;;;;;;;;;;;;;;14.04;62.18;101343.63;5006027;28;20381;-86
2022/11/03 00:56:21;;;;;;;;;;;;;;;14.18;62.07;101371.88;5029295;28;20315;-83
2022/11/03 00:58:47;;;;;;;;;;;;;;;14.28;61.76;101365.31;5019626;28;19924;-85
2022/11/03 01:01:14;;;;;;;;;;;;;;;14.09;62.27;101366.47;5041088;28;19925;-85
2022/11/03 01:03:40;;;;;;;;;;;;;;;14.21;61.85;101371.53;5032958;28;20286;-87
2022/11/03 01:08:54;;;;;;;;;;;;;;;14.32;61.40;101368.50;5036667;28;19983;-85
2022/11/03 01:14:09;;;;;;;;;;;;;;;14.32;61.41;101380.16;5048073;28;20041;-84
2022/11/03 01:16:35;;;;;;;;;;;;;;;14.33;61.27;101378.31;5045708;28;19955;-85
2022/11/03 01:19:02;;;;;;;;;;;;;;;14.30;61.28;101378.63;5010960;28;19925;-86
2022/11/03 01:21:27;;;;;;;;;;;;;;;14.32;60.95;101371.22;5022563;28;20297;-86
2022/11/03 01:23:54;;;;;;;;;;;;;;;14.26;61.03;101371.91;5014821;28;19999;-86
2022/11/03 01:26:21;;;;;;;;;;;;;;;14.24;60.65;101373.91;5045124;28;19928;-86
2022/11/03 01:28:48;;;;;;;;;;;;;;;14.37;59.92;101390.47;5047819;28;19920;-86
2022/11/03 01:31:19;;;;;;;;;;;;;;;14.39;59.66;101383.03;5047256;28;19921;-87
2022/11/03 01:33:45;;;;;;;;;;;;;;;14.37;59.70;101379.66;5033566;28;19971;-85
2022/11/03 01:36:12;;;;;;;;;;;;;;;14.35;59.59;101373.56;5028120;28;19964;-87
2022/11/03 01:38:37;;;;;;;;;;;;;;;14.41;59.36;101372.06;5049734;28;19971;-87
2022/11/03 01:41:04;;;;;;;;;;;;;;;14.42;59.16;101384.56;5043741;28;20377;-87
2022/11/03 01:43:32;;;;;;;;;;;;;;;14.29;59.89;101390.47;5047260;28;20007;-85
2022/11/03 01:46:09;;;;;;;;;;;;;;;14.15;59.52;101382.00;5025580;28;20417;-86
2022/11/03 01:48:35;;;;;;;;;;;;;;;14.26;59.13;101385.41;5045283;28;19921;-87
2022/11/03 01:51:03;;;;;;;;;;;;;;;14.13;59.60;101385.91;5011002;28;19952;-86
2022/11/03 01:53:28;;;;;;;;;;;;;;;14.27;59.17;101389.81;5031089;28;20343;-86
2022/11/03 01:55:55;;;;;;;;;;;;;;;14.36;58.63;101386.09;5009308;28;19917;-86
2022/11/03 01:58:21;;;;;;;;;;;;;;;14.36;58.48;101394.22;5049076;28;20010;-87
2022/11/03 02:00:47;;;;;;;;;;;;;;;14.31;58.74;101383.88;5024377;28;19944;-88
2022/11/03 02:03:15;;;;;;;;;;;;;;;14.36;58.45;101388.78;5031083;28;19921;-89
2022/11/03 02:05:40;;;;;;;;;;;;;;;14.41;58.64;101386.44;5012009;28;20439;-85
2022/11/03 02:08:16;;;;;;;;;;;;;;;14.45;58.46;101386.94;5047476;28;19921;-87
2022/11/03 02:10:42;;;;;;;;;;;;;;;14.47;58.44;101393.88;5019392;28;20015;-86
2022/11/03 02:13:23;;;;;;;;;;;;;;;14.53;58.44;101387.78;5045811;28;20003;-87
2022/11/03 02:15:53;;;;;;;;;;;;;;;14.58;58.02;101398.13;5044617;28;19982;-86
2022/11/03 02:18:19;;;;;;;;;;;;;;;14.59;58.19;101399.00;5046767;28;19921;-87
2022/11/03 02:20:45;;;;;;;;;;;;;;;14.60;57.70;101398.81;5045697;28;19928;-87
2022/11/03 02:23:10;;;;;;;;;;;;;;;14.58;57.82;101398.13;5007079;28;20271;-84
2022/11/03 02:25:54;;;;;;;;;;;;;;;14.53;58.33;101395.91;5047374;28;19947;-85
2022/11/03 02:28:21;;;;;;;;;;;;;;;14.65;57.77;101403.72;5026503;28;19959;-85
2022/11/03 02:30:47;;;;;;;;;;;;;;;14.54;57.69;101405.75;5024563;28;19964;-86
2022/11/03 02:33:16;;;;;;;;;;;;;;;14.56;57.47;101413.69;5043106;28;19972;-85
2022/11/03 02:35:46;;;;;;;;;;;;;;;14.54;57.86;101413.88;5011381;28;20345;-84
2022/11/03 02:38:13;;;;;;;;;;;;;;;14.46;57.27;101412.97;5042729;28;19933;-85
2022/11/03 02:40:40;;;;;;;;;;;;;;;14.55;56.96;101417.41;5044307;28;19921;-86
2022/11/03 02:43:05;;;;;;;;;;;;;;;14.61;57.38;101418.59;5022355;28;20408;-84
2022/11/03 02:45:31;;;;;;;;;;;;;;;14.62;57.55;101414.88;5010082;28;19921;-86
2022/11/03 02:48:02;;;;;;;;;;;;;;;14.53;58.59;101422.13;5031564;28;20068;-85
2022/11/03 02:50:29;;;;;;;;;;;;;;;14.36;59.90;101426.66;5019624;28;19960;-85
2022/11/03 02:52:55;;;;;;;;;;;;;;;14.20;60.99;101437.47;5024133;28;20004;-85
2022/11/03 02:55:39;;;;;;;;;;;;;;;14.28;61.05;101430.22;5031663;28;19933;-86
2022/11/03 02:58:07;;;;;;;;;;;;;;;14.26;61.21;101436.81;5032030;28;19917;-85
2022/11/03 03:00:35;;;;;;;;;;;;;;;14.13;62.08;101437.28;5045421;28;19920;-84
2022/11/03 03:03:20;;;;;;;;;;;;;;;13.95;63.10;101437.38;5023124;28;19921;-85
2022/11/03 03:05:47;;;;;;;;;;;;;;;13.88;63.39;101442.63;5040601;28;20313;-86
2022/11/03 03:08:13;;;;;;;;;;;;;;;13.83;63.51;101442.25;5002474;28;20016;-85
2022/11/03 03:10:39;;;;;;;;;;;;;;;13.75;64.00;101442.22;5006060;28;19917;-85
2022/11/03 03:13:05;;;;;;;;;;;;;;;13.63;64.76;101430.84;5029126;28;19921;-86
2022/11/03 03:15:39;;;;;;;;;;;;;;;13.67;64.82;101437.63;5027493;28;19939;-87
2022/11/03 03:18:25;;;;;;;;;;;;;;;13.40;65.62;101418.94;5021889;28;19975;-87
2022/11/03 03:20:55;;;;;;;;;;;;;;;13.57;65.26;101436.06;5004868;28;19975;-86
2022/11/03 03:23:31;;;;;;;;;;;;;;;13.53;65.46;101449.03;5013270;28;20158;-83
2022/11/03 03:25:56;;;;;;;;;;;;;;;13.46;65.73;101442.56;5034052;28;19929;-86
2022/11/03 03:28:23;;;;;;;;;;;;;;;13.51;65.75;101441.09;5048330;28;20281;-85
2022/11/03 03:30:49;;;;;;;;;;;;;;;13.58;65.48;101438.59;5026815;28;20247;-87
2022/11/03 03:33:14;;;;;;;;;;;;;;;13.41;66.30;101437.66;5020022;28;19921;-86
2022/11/03 03:35:40;;;;;;;;;;;;;;;13.50;65.90;101441.25;5019335;28;20389;-86
2022/11/03 03:38:07;;;;;;;;;;;;;;;13.53;65.72;101449.03;5017789;28;20507;-85
2022/11/03 03:40:39;;;;;;;;;;;;;;;13.51;66.10;101453.78;5027423;28;19921;-84
2022/11/03 03:43:05;;;;;;;;;;;;;;;13.55;65.69;101467.78;5016079;28;20407;-85
2022/11/03 03:45:52;;;;;;;;;;;;;;;13.57;65.21;101461.22;5029489;28;19964;-84
2022/11/03 03:48:18;;;;;;;;;;;;;;;13.55;65.06;101460.53;5018463;28;19947;-87
2022/11/03 03:50:43;;;;;;;;;;;;;;;13.63;65.09;101463.28;5038118;28;19947;-86
2022/11/03 03:53:09;;;;;;;;;;;;;;;13.69;64.32;101459.91;5014806;28;19943;-88
2022/11/03 03:55:39;;;;;;;;;;;;;;;13.62;64.88;101463.44;5025489;28;20245;-87
2022/11/03 03:58:04;;;;;;;;;;;;;;;13.62;65.19;101461.56;5024504;28;20385;-88
2022/11/03 04:00:29;;;;;;;;;;;;;;;13.72;64.83;101467.72;5030036;28;20015;-87
2022/11/03 04:02:57;;;;;;;;;;;;;;;13.75;64.55;101463.00;5046456;28;20364;-86
2022/11/03 04:05:23;;;;;;;;;;;;;;;13.77;64.22;101455.59;5026772;28;19928;-88
2022/11/03 04:07:48;;;;;;;;;;;;;;;13.62;64.42;101452.63;5026808;28;19965;-87
2022/11/03 04:10:15;;;;;;;;;;;;;;;13.56;64.77;101456.84;5025940;28;20316;-89
2022/11/03 04:23:46;;;;;;;;;;;;;;;13.51;65.12;101464.56;5036789;28;19932;-86
2022/11/03 04:26:12;;;;;;;;;;;;;;;13.43;65.55;101468.06;5046942;28;20567;-87
2022/11/03 04:28:37;;;;;;;;;;;;;;;13.40;65.41;101478.34;5038474;28;19917;-83
2022/11/03 04:31:05;;;;;;;;;;;;;;;13.45;64.96;101470.59;5043949;28;19925;-84
2022/11/03 04:33:30;;;;;;;;;;;;;;;13.45;64.96;101476.00;5053424;28;19923;-83
2022/11/03 04:35:57;;;;;;;;;;;;;;;13.46;64.68;101473.16;5038505;28;19920;-83
2022/11/03 04:38:23;;;;;;;;;;;;;;;13.37;65.30;101478.66;5071098;28;19992;-82
2022/11/03 04:40:53;;;;;;;;;;;;;;;13.43;65.05;101480.72;5049526;28;19988;-81
2022/11/03 04:43:19;;;;;;;;;;;;;;;13.47;64.69;101484.81;5052477;28;19935;-82
2022/11/03 04:45:46;;;;;;;;;;;;;;;13.48;64.58;101487.31;5043182;28;19921;-85
2022/11/03 04:48:12;;;;;;;;;;;;;;;13.41;64.65;101491.66;5017463;28;19917;-86
2022/11/03 04:50:37;;;;;;;;;;;;;;;13.35;64.96;101484.22;5032146;28;20007;-85
2022/11/03 04:53:04;;;;;;;;;;;;;;;13.35;64.71;101494.19;5034872;28;19925;-86
2022/11/03 04:55:50;;;;;;;;;;;;;;;13.31;64.54;101490.94;5025247;28;19940;-87
2022/11/03 04:58:20;;;;;;;;;;;;;;;13.37;65.00;101502.94;5049655;28;19932;-85
2022/11/03 05:00:46;;;;;;;;;;;;;;;13.35;64.26;101499.59;5044732;28;19921;-85
2022/11/03 05:03:40;;;;;;;;;;;;;;;13.21;64.87;101488.31;5015373;28;19944;-84
2022/11/03 05:06:47;;;;;;;;;;;;;;;13.20;65.08;101505.50;5030216;28;19924;-83
2022/11/03 05:09:16;;;;;;;;;;;;;;;13.31;64.91;101509.84;5050707;28;19966;-83
2022/11/03 05:11:43;;;;;;;;;;;;;;;13.37;64.80;101517.31;5018388;28;19958;-83
2022/11/03 05:14:11;;;;;;;;;;;;;;;13.23;65.26;101532.22;5039400;28;19913;-84
2022/11/03 05:16:37;;;;;;;;;;;;;;;13.48;64.47;101524.31;5069539;28;19916;-84
2022/11/03 05:19:02;;;;;;;;;;;;;;;13.49;64.57;101537.66;5056441;28;19952;-79
2022/11/03 05:21:28;;;;;;;;;;;;;;;13.59;64.26;101542.97;5028918;28;19951;-83
2022/11/03 05:23:59;;;;;;;;;;;;;;;13.67;64.24;101539.44;5048042;28;19956;-84
2022/11/03 05:26:25;;;;;;;;;;;;;;;13.80;63.74;101547.13;5027310;28;19917;-84
2022/11/03 05:28:58;;;;;;;;;;;;;;;13.85;63.93;101550.19;5029265;28;19928;-84
2022/11/03 05:31:24;;;;;;;;;;;;;;;13.98;64.18;101558.72;5039638;28;19921;-83
2022/11/03 05:33:50;;;;;;;;;;;;;;;14.18;63.50;101558.47;5047512;28;20484;-87
2022/11/03 05:36:20;;;;;;;;;;;;;;;14.92;61.97;101563.09;5045292;28;19921;-84
2022/11/03 05:38:47;;;;;;;;;;;;;;;15.05;61.24;101572.56;5050439;28;20018;-88
2022/11/03 05:41:36;;;;;;;;;;;;;;;15.10;61.32;101564.78;5049888;28;19969;-88
2022/11/03 05:44:21;;;;;;;;;;;;;;;15.43;60.79;101570.19;5031582;28;19920;-88
2022/11/03 05:46:46;;;;;;;;;;;;;;;15.55;60.11;101575.13;5025096;28;19980;-87
2022/11/03 05:49:12;;;;;;;;;;;;;;;15.67;59.52;101583.75;5052086;28;20568;-89
2022/11/03 05:51:38;;;;;;;;;;;;;;;15.80;59.56;101577.78;5022297;28;19916;-89
2022/11/03 05:54:04;;;;;;;;;;;;;;;16.70;56.82;101584.75;5035458;28;19964;-89
2022/11/03 05:56:31;;;;;;;;;;;;;;;17.80;54.39;101581.66;5029453;28;20037;-90
2022/11/03 05:58:57;;;;;;;;;;;;;;;18.97;51.54;101584.47;5014330;28;19922;-89
2022/11/03 06:01:36;;;;;;;;;;;;;;;19.88;48.40;101573.72;5029910;28;19921;-88
2022/11/03 06:04:20;;;;;;;;;;;;;;;20.72;45.31;101569.94;5039098;28;20071;-87
2022/11/03 06:07:14;;;;;;;;;;;;;;;21.73;43.60;101570.81;5041671;28;20008;-94
2022/11/03 06:09:42;;;;;;;;;;;;;;;22.47;41.53;101577.81;5048737;28;19925;-91
2022/11/03 06:12:10;;;;;;;;;;;;;;;22.66;40.82;101568.63;5026923;28;20004;-91
2022/11/03 06:14:37;;;;;;;;;;;;;;;22.94;40.29;101579.25;5033829;28;19927;-89
2022/11/03 06:17:04;;;;;;;;;;;;;;;23.74;38.25;101586.91;5012590;28;19931;-89
2022/11/03 06:19:41;;;;;;;;;;;;;;;24.40;37.12;101579.81;5032198;28;19917;-91
2022/11/03 06:22:44;;;;;;;;;;;;;;;24.75;36.08;101590.16;5042672;28;19916;-89
2022/11/03 06:25:15;;;;;;;;;;;;;;;25.16;35.20;101593.16;4947654;28;19922;-96
2022/11/03 06:27:46;;;;;;;;;;;;;;;25.76;34.21;101593.03;5025963;28;20001;-93
2022/11/03 06:30:31;;;;;;;;;;;;;;;26.17;33.07;101593.13;5039760;28;19921;-93
2022/11/03 06:32:57;;;;;;;;;;;;;;;26.14;33.14;101594.47;5026360;28;19917;-91
2022/11/03 06:35:23;;;;;;;;;;;;;;;26.65;32.00;101594.72;5021560;28;20296;-93
2022/11/03 06:37:56;;;;;;;;;;;;;;;27.17;31.21;101592.63;5031184;28;19932;-95
2022/11/03 06:40:23;;;;;;;;;;;;;;;27.16;31.04;101596.50;5055195;28;20011;-95
2022/11/03 06:42:50;;;;;;;;;;;;;;;27.33;30.80;101590.19;5032063;28;19920;-94
2022/11/03 06:45:21;;;;;;;;;;;;;;;27.83;30.88;101597.59;5039913;28;19925;-92
2022/11/03 06:47:49;;;;;;;;;;;;;;;27.69;30.10;101593.50;5017005;28;19983;-95
2022/11/03 06:50:23;;;;;;;;;;;;;;;27.57;30.42;101597.19;5023441;28;20011;-93
2022/11/03 06:52:51;;;;;;;;;;;;;;;28.22;29.46;101597.59;5057434;28;19905;-93
2022/11/03 06:55:31;;;;;;;;;;;;;;;28.57;29.42;101599.19;5043092;28;19928;-91
2022/11/03 06:58:13;;;;;;;;;;;;;;;28.31;28.90;101601.59;5022729;28;19935;-93
2022/11/03 07:00:41;;;;;;;;;;;;;;;28.79;28.66;101602.72;5053314;28;20468;-92
2022/11/03 07:03:36;;;;;;;;;;;;;;;29.23;27.88;101602.63;5026216;28;19905;-94
2022/11/03 07:06:24;;;;;;;;;;;;;;;28.92;28.42;101595.13;5057369;28;19939;-96
2022/11/03 07:20:23;;;;;;;;;;;;;;;28.36;29.62;101604.41;5068790;28;19923;-94
2022/11/03 07:28:21;;;;;;;;;;;;;;;27.66;30.05;101602.31;5914889;22;21444;31
2022/11/03 07:31:11;;;;;;;;;;;;;;;27.57;29.96;101608.22;5044138;23;19950;-96
2022/11/03 07:33:37;;;;;;;;;;;;;;;27.08;30.67;101605.16;4978084;28;20347;-88
2022/11/03 07:36:07;;;;;;;;;;;;;;;26.62;31.19;101607.06;4957435;28;19985;-94
2022/11/03 07:38:34;;;;;;;;;;;;;;;26.64;31.16;101599.38;4975506;28;19926;-95
2022/11/03 07:41:23;;;;;;;;;;;;;;;26.71;31.23;101613.88;4970949;28;19926;-94
2022/11/03 07:44:04;;;;;;;;;;;;;;;27.39;29.81;101610.41;4958892;28;20429;-95
2022/11/03 07:46:34;;;;;;;;;;;;;;;28.17;28.81;101611.38;4959255;28;20005;-95
2022/11/03 07:49:11;;;;;;;;;;;;;;;28.20;28.98;101606.16;4960601;28;19926;-94
2022/11/03 07:51:41;;;;;;;;;;;;;;;28.36;28.56;101607.19;4963086;28;19918;-92
2022/11/03 07:54:17;;;;;;;;;;;;;;;29.56;27.43;101603.47;4987163;28;19923;-92
2022/11/03 07:57:06;;;;;;;;;;;;;;;30.67;25.66;101598.81;4979475;28;20286;-91
2022/11/03 07:59:33;;;;;;;;;;;;;;;30.85;24.92;101600.25;4988654;28;19910;-92
2022/11/03 08:01:59;;;;;;;;;;;;;;;31.68;23.69;101602.00;4977530;28;19926;-93
2022/11/03 08:04:25;;;;;;;;;;;;;;;32.32;23.43;101607.97;4989169;28;20028;-89
2022/11/03 08:06:50;;;;;;;;;;;;;;;32.30;23.31;101607.41;4985942;28;19930;-89
2022/11/03 08:09:18;;;;;;;;;;;;;;;31.89;23.47;101605.56;4981374;28;20006;-91
2022/11/03 08:11:45;;;;;;;;;;;;;;;32.04;23.55;101607.50;4981414;28;19926;-91
2022/11/03 08:14:11;;;;;;;;;;;;;;;32.25;23.07;101599.91;4957206;28;19949;-91
2022/11/03 08:16:37;;;;;;;;;;;;;;;30.36;25.17;101603.41;4972583;28;19922;-94
2022/11/03 08:19:03;;;;;;;;;;;;;;;27.29;29.72;101600.03;4976178;28;19946;-90
2022/11/03 08:21:29;;;;;;;;;;;;;;;26.22;31.29;101596.00;4975987;28;19921;-90
2022/11/03 08:23:56;;;;;;;;;;;;;;;28.19;28.66;101609.19;4962591;28;20390;-89
2022/11/03 08:26:21;;;;;;;;;;;;;;;30.20;25.98;101613.56;4961768;28;19922;-90
2022/11/03 08:28:47;;;;;;;;;;;;;;;31.33;24.58;101609.22;4952787;28;19940;-90
2022/11/03 08:31:12;;;;;;;;;;;;;;;31.46;24.18;101599.50;4972665;28;19926;-92
2022/11/03 08:33:38;;;;;;;;;;;;;;;32.25;23.09;101604.66;4956216;28;20408;-90
2022/11/03 08:36:04;;;;;;;;;;;;;;;32.64;21.69;101601.13;4971811;28;19941;-93
2022/11/03 08:38:29;;;;;;;;;;;;;;;33.36;20.72;101601.50;4962110;28;19936;-90
2022/11/03 08:40:55;;;;;;;;;;;;;;;33.64;19.89;101603.47;4970593;28;19918;-90
2022/11/03 08:43:48;;;;;;;;;;;;;;;33.79;19.83;101599.72;4986522;28;19960;-94
2022/11/03 08:46:28;;;;;;;;;;;;;;;;;;;;;
2022/11/03 08:49:09;;;;;;;;;;;;;;;35.83;18.22;101589.50;4973223;28;19964;-94
2022/11/03 08:51:53;;;;;;;;;;;;;;;36.32;17.54;101585.16;5004797;28;19928;-95
2022/11/03 08:54:43;;;;;;;;;;;;;;;36.07;17.44;101594.88;4982123;28;20303;-94
2022/11/03 08:57:10;;;;;;;;;;;;;;;34.81;18.91;101585.63;4970871;28;19957;-94
2022/11/03 08:59:37;;;;;;;;;;;;;;;34.24;19.83;101585.56;5003617;28;20012;-93
2022/11/03 09:02:36;;;;;;;;;;;;;;;34.60;19.75;101585.06;5218856;23;19978;-91
2022/11/03 09:05:03;;;;;;;;;;;;;;;34.07;20.25;101594.38;5026750;28;19929;-93
2022/11/03 09:07:36;;;;;;;;;;;;;;;34.46;19.56;101593.34;5011178;28;19928;-91
2022/11/03 09:10:17;;;;;;;;;;;;;;;33.99;20.51;101592.25;5034473;28;19943;-93
2022/11/03 09:12:43;;;;;;;;;;;;;;;34.02;20.56;101586.91;5019434;28;21265;-91
2022/11/03 09:15:11;;;;;;;;;;;;;;;34.36;20.31;101587.91;5006040;28;19987;-93
2022/11/03 09:17:40;;;;;;;;;;;;;;;34.76;20.08;101582.91;5015368;28;19937;-90
2022/11/03 09:20:34;;;;;;;;;;;;;;;34.50;20.19;101588.00;5035582;28;19947;-94
2022/11/03 09:22:59;;;;;;;;;;;;;;;33.58;21.30;101587.13;5042655;28;19955;-93
2022/11/03 09:25:26;;;;;;;;;;;;;;;32.71;22.08;101580.22;5038486;28;19985;-93
2022/11/03 09:27:52;;;;;;;;;;;;;;;32.61;22.05;101582.22;5021886;28;19932;-91
2022/11/03 09:30:17;;;;;;;;;;;;;;;33.44;21.25;101586.94;5007180;28;19921;-92
2022/11/03 09:32:45;;;;;;;;;;;;;;;33.36;20.93;101579.19;5031026;28;19989;-94
2022/11/03 09:35:13;;;;;;;;;;;;;;;32.36;22.34;101573.72;5019184;28;19932;-92
2022/11/03 09:37:39;;;;;;;;;;;;;;;31.94;23.38;101574.97;5006971;28;19936;-90
2022/11/03 09:40:05;;;;;;;;;;;;;;;31.60;23.77;101563.63;5027266;28;19989;-88
2022/11/03 09:42:33;;;;;;;;;;;;;;;32.22;23.48;101566.25;5027005;28;19963;-92
2022/11/03 09:44:58;;;;;;;;;;;;;;;32.08;23.67;101572.44;4995069;28;19929;-91
2022/11/03 09:47:40;;;;;;;;;;;;;;;31.09;24.92;101561.72;5014549;28;20028;-93
2022/11/03 09:50:35;;;;;;;;;;;;;;;29.67;26.92;101563.69;5007329;28;19931;-88
2022/11/03 09:59:38;;;;;;;;;;;;;;;31.24;24.85;101551.72;4944523;29;19923;-94
2022/11/03 10:02:10;;;;;;;;;;;;;;;29.99;26.27;101551.66;4948118;28;19922;-94
2022/11/03 10:04:45;;;;;;;;;;;;;;;30.25;25.88;101544.28;4943548;28;19958;-92
2022/11/03 10:07:11;;;;;;;;;;;;;;;32.58;23.48;101539.13;4942394;28;20026;-95
2022/11/03 10:10:19;;;;;;;;;;;;;;;31.93;23.89;101541.88;4950637;28;20229;-94
2022/11/03 10:12:46;;;;;;;;;;;;;;;32.79;22.65;101537.03;4940124;29;19954;-94
2022/11/03 10:15:38;;;;;;;;;;;;;;;32.47;23.10;101535.50;5020459;28;19917;-92
2022/11/03 10:18:08;;;;;;;;;;;;;;;32.54;23.17;101530.50;5027450;28;19924;-92
2022/11/03 10:20:34;;;;;;;;;;;;;;;31.54;24.35;101525.88;5023228;28;19980;-90
2022/11/03 10:23:00;;;;;;;;;;;;;;;31.94;24.22;101515.75;5005015;28;19984;-90
2022/11/03 10:28:28;;;;;;;;;;;;;;;32.08;23.82;101516.81;5019240;28;19964;-90
2022/11/03 10:31:00;;;;;;;;;;;;;;;31.54;24.57;101518.38;5020162;28;19969;-92
2022/11/03 10:33:36;;;;;;;;;;;;;;;31.58;24.12;101521.41;5024344;28;19975;-88
2022/11/03 10:36:02;;;;;;;;;;;;;;;31.60;24.19;101521.94;5022428;28;20366;-91
2022/11/03 10:38:34;;;;;;;;;;;;;;;31.67;24.28;101511.38;5024481;28;19921;-91
2022/11/03 10:41:15;;;;;;;;;;;;;;;31.49;24.41;101517.53;5033927;28;20024;-92
2022/11/03 10:43:42;;;;;;;;;;;;;;;32.16;23.80;101518.16;5040214;28;20038;-91
2022/11/03 10:46:21;;;;;;;;;;;;;;;31.51;23.92;101512.53;5026469;28;19933;-91
2022/11/03 10:49:19;;;;;;;;;;;;;;;31.11;24.91;101508.66;5037939;28;19955;-93
2022/11/03 10:51:51;;;;;;;;;;;;;;;31.04;25.00;101499.78;5036467;28;19996;-88
2022/11/03 10:54:21;;;;;;;;;;;;;;;29.51;26.85;101502.88;5039972;28;20008;-90
2022/11/03 10:56:51;;;;;;;;;;;;;;;30.24;25.94;101502.94;5042054;28;19914;-90
2022/11/03 10:59:33;;;;;;;;;;;;;;;30.22;26.16;101505.97;5044351;28;19909;-89
2022/11/03 11:02:18;;;;;;;;;;;;;;;30.73;25.58;101488.66;5058038;28;19929;-87
2022/11/03 11:04:45;;;;;;;;;;;;;;;28.98;28.00;101499.94;5070192;28;19913;-91
2022/11/03 11:07:23;;;;;;;;;;;;;;;28.87;28.11;101495.44;5032586;28;20066;-90
2022/11/03 11:09:55;;;;;;;;;;;;;;;28.21;28.84;101479.81;5028106;28;19924;-91
2022/11/03 11:12:23;;;;;;;;;;;;;;;28.54;28.75;101477.97;5051026;28;19998;-89
2022/11/03 11:14:55;;;;;;;;;;;;;;;28.69;28.69;101486.44;5020062;28;19925;-90
2022/11/03 11:17:36;;;;;;;;;;;;;;;28.22;29.23;101491.72;5046943;28;19992;-88
2022/11/03 11:20:21;;;;;;;;;;;;;;;27.43;30.74;101468.84;5048176;28;20070;-89
2022/11/03 11:22:46;;;;;;;;;;;;;;;27.52;30.96;101472.84;5043258;28;19916;-88
2022/11/03 11:25:24;;;;;;;;;;;;;;;27.38;31.42;101462.44;5016794;28;19917;-89
2022/11/03 11:28:00;;;;;;;;;;;;;;;26.39;33.25;101464.59;5044595;28;19928;-91
2022/11/03 11:30:28;;;;;;;;;;;;;;;26.07;33.67;101467.00;5048257;28;19925;-89
2022/11/03 11:33:21;;;;;;;;;;;;;;;26.47;33.49;101466.94;5042186;28;19920;-88
2022/11/03 11:35:54;;;;;;;;;;;;;;;26.77;32.54;101467.78;5025386;28;19925;-88
2022/11/03 11:38:40;;;;;;;;;;;;;;;27.02;32.59;101462.69;5052705;28;19928;-87
2022/11/03 11:41:06;;;;;;;;;;;;;;;25.84;33.62;101463.19;5046230;28;20324;-88
2022/11/03 11:43:34;;;;;;;;;;;;;;;24.92;35.10;101460.25;5020151;28;19926;-88
2022/11/03 11:46:18;;;;;;;;;;;;;;;24.36;36.16;101462.34;5013426;28;20333;-89
2022/11/03 11:48:44;;;;;;;;;;;;;;;24.17;36.25;101459.63;5048667;28;19927;-89
2022/11/03 11:51:10;;;;;;;;;;;;;;;24.04;37.12;101465.28;5029843;28;20309;-91
2022/11/03 11:53:43;;;;;;;;;;;;;;;23.80;37.79;101454.19;5034328;28;19947;-93
2022/11/03 11:56:10;;;;;;;;;;;;;;;23.31;38.51;101453.22;5057013;28;19924;-91
2022/11/03 11:58:35;;;;;;;;;;;;;;;22.53;40.64;101454.47;5033682;28;19972;-91
2022/11/03 12:01:02;;;;;;;;;;;;;;;21.84;42.27;101453.31;5047315;28;19930;-90
2022/11/03 12:03:29;;;;;;;;;;;;;;;21.80;42.68;101448.53;5046424;28;19924;-87
2022/11/03 12:05:54;;;;;;;;;;;;;;;21.81;42.97;101450.19;5045825;28;20328;-89
2022/11/03 12:08:23;;;;;;;;;;;;;;;21.44;44.11;101439.75;5026703;28;20028;-84
2022/11/03 12:10:52;;;;;;;;;;;;;;;21.75;43.87;101445.56;5024376;28;20001;-85
2022/11/03 12:13:40;;;;;;;;;;;;;;;21.37;44.82;101443.53;5044002;28;19971;-84
2022/11/03 12:16:06;;;;;;;;;;;;;;;20.96;46.28;101452.84;5025571;28;19987;-87
2022/11/03 12:18:33;;;;;;;;;;;;;;;21.35;45.40;101445.66;5026138;28;20360;-87
2022/11/03 12:21:00;;;;;;;;;;;;;;;20.93;46.36;101447.78;5026619;28;19921;-86
2022/11/03 12:23:33;;;;;;;;;;;;;;;20.45;47.18;101452.34;5030087;28;19927;-88
2022/11/03 12:25:58;;;;;;;;;;;;;;;20.64;47.17;101450.72;5044747;28;19928;-87
2022/11/03 12:28:36;;;;;;;;;;;;;;;20.68;47.21;101442.97;5029800;28;19916;-86
2022/11/03 12:31:02;;;;;;;;;;;;;;;20.74;47.06;101444.84;5045748;28;19927;-88
2022/11/03 12:33:27;;;;;;;;;;;;;;;20.84;46.54;101439.81;5030733;28;19924;-85
2022/11/03 12:35:53;;;;;;;;;;;;;;;21.05;46.22;101440.66;5028765;28;19929;-86
2022/11/03 12:38:19;;;;;;;;;;;;;;;20.59;47.68;101450.50;5011587;28;19917;-86
2022/11/03 12:40:44;;;;;;;;;;;;;;;20.07;49.10;101448.47;5048760;28;19978;-86
2022/11/03 12:43:10;;;;;;;;;;;;;;;19.64;50.37;101451.38;5028499;28;20020;-86
2022/11/03 12:45:35;;;;;;;;;;;;;;;19.44;50.88;101440.38;5050895;28;19921;-88
2022/11/03 12:48:02;;;;;;;;;;;;;;;19.53;50.61;101441.91;5034874;28;20386;-86
2022/11/03 12:50:29;;;;;;;;;;;;;;;19.12;52.01;101448.13;5052427;28;19940;-87
2022/11/03 12:52:54;;;;;;;;;;;;;;;19.15;52.17;101448.59;5043605;28;19917;-86
2022/11/03 12:55:19;;;;;;;;;;;;;;;18.94;52.84;101451.31;5033371;28;20007;-85
2022/11/03 12:57:48;;;;;;;;;;;;;;;19.06;52.86;101444.31;5025626;28;20005;-87
2022/11/03 13:00:15;;;;;;;;;;;;;;;18.95;52.87;101440.22;5053271;28;20084;-90
2022/11/03 13:02:40;;;;;;;;;;;;;;;19.08;52.75;101450.41;5023622;28;20095;-86
2022/11/03 13:05:05;;;;;;;;;;;;;;;18.69;53.38;101440.81;5034979;28;19979;-86
2022/11/03 13:07:32;;;;;;;;;;;;;;;18.88;53.21;101443.97;5036497;28;19929;-87
2022/11/03 13:09:58;;;;;;;;;;;;;;;18.90;52.75;101444.59;5026799;28;20344;-86
2022/11/03 13:12:30;;;;;;;;;;;;;;;18.49;54.12;101445.22;5052555;28;19925;-89
2022/11/03 13:14:58;;;;;;;;;;;;;;;18.35;54.81;101449.69;5017027;28;19996;-87
2022/11/03 13:17:24;;;;;;;;;;;;;;;18.01;55.94;101448.47;5037147;28;19924;-87
2022/11/03 13:19:49;;;;;;;;;;;;;;;18.17;55.80;101452.00;5039645;28;20300;-87
2022/11/03 13:22:15;;;;;;;;;;;;;;;18.21;56.04;101448.69;5031182;28;20122;-87
2022/11/03 13:24:40;;;;;;;;;;;;;;;18.34;55.94;101437.13;5049686;28;20368;-87
2022/11/03 13:27:07;;;;;;;;;;;;;;;17.99;56.13;101438.81;5050567;28;20357;-87
2022/11/03 13:29:34;;;;;;;;;;;;;;;17.90;56.32;101440.81;5054608;28;19979;-85
2022/11/03 13:31:59;;;;;;;;;;;;;;;17.99;56.70;101438.81;5054943;28;20066;-87
2022/11/03 13:34:25;;;;;;;;;;;;;;;17.84;56.79;101436.97;5024634;28;19959;-88
2022/11/03 13:36:50;;;;;;;;;;;;;;;17.74;57.35;101436.38;5044367;28;19921;-87
2022/11/03 13:39:15;;;;;;;;;;;;;;;17.52;58.13;101444.47;5034260;28;20034;-86